Airfield :
LOGIN :

Register | Disclaimer

   EN    FR    IT 

 










Legend :    VFR   Marginal VFR   IFR   Intensive IFR   Very Intensive IFR
Visi :
Ceiling :
>= 8 km
>= 3000ft
5 to 8 km
1000 to 3000 ft
1500m to 5 km
500 to 1000 ft
800 to 1500m
200 to 500 ft
< 800m
< 200 ft
Symbols :   Thunderstorms  Fog  Heavy snow  Heavy precipitations  Wind > 20 kt
SIGMETs :     Misc.  Thunderstorms  Icing  Turbulence  Mountain Waves  Volcanic Ashes






- Airport Elevation : 172 ft
- IATA code : ODS


UKOO - Odesa

CURRENT METAR :
  • 300730Z 31007MPS CAVOK 14/M02 Q1005 R34/090060 NOSIG

EXPIRED METARs :
  • 300700Z 33007MPS CAVOK 13/M02 Q1005 R34/090060 NOSIG
  • 300630Z 32005MPS CAVOK 11/M02 Q1005 R34/090060 NOSIG
  • 300600Z 32005MPS CAVOK 10/M03 Q1005 R34/090060 NOSIG
  • 300530Z 30005MPS CAVOK 09/M02 Q1005 R34/090060 NOSIG
  • 300500Z 30004MPS CAVOK 07/M02 Q1005 R34/090060 NOSIG

TAF TAF UKOO
Valid from the 30 at 06:00 until the 31 at 06:00 UTC


300508Z 3006/3106 32007G14MPS 6000 BKN007 SCT020CB TX15/3112Z TN03/3104Z
TEMPO 3012/3018 2100 -SHRA



MET'MAP, your aeronautical weather chart ! - Copyright ORBIFLY December 2007 - Disclaimer

ORBIFLY MET'MAP TEAM :

Programming & Development : Alexandra Zaïnal
Concept & original design : Baudouin d'Aumeries
Assistance for programming : Marc-Olivier Méhu
Technical & hardware support : Manuel Goepfert

Contact : metmap@orbifly.com




SOURCES & CREDITS :

   NOAA